createdAt,value
2022-09-26T00:00:44.047Z,99585.56
2022-09-26T00:01:46.272Z,99579.22
2022-09-26T00:02:48.539Z,99579.22
2022-09-26T00:03:56.951Z,99582.81
2022-09-26T00:04:59.105Z,99576.44
2022-09-26T00:06:03.111Z,99572.84
2022-09-26T00:07:05.246Z,99578.09
2022-09-26T00:08:07.591Z,99570.59
2022-09-26T00:09:09.883Z,99563.41
2022-09-26T00:10:12.086Z,99567.00
2022-09-26T00:11:17.186Z,99568.63
2022-09-26T00:12:19.330Z,99565.06
2022-09-26T00:13:21.513Z,99567.81
2022-09-26T00:14:28.317Z,99567.81
2022-09-26T00:15:30.614Z,99563.09
2022-09-26T00:16:33.250Z,99570.28
2022-09-26T00:17:35.452Z,99569.47
2022-09-26T00:18:38.047Z,99562.28
2022-09-26T00:19:40.438Z,99561.97
2022-09-26T00:20:42.636Z,99561.16
2022-09-26T00:21:44.759Z,99565.59
2022-09-26T00:22:46.962Z,99560.03
2022-09-26T00:23:49.654Z,99573.91
2022-09-26T00:24:52.981Z,99563.63
2022-09-26T00:25:58.701Z,99570.00
2022-09-26T00:27:00.850Z,99558.91
2022-09-26T00:28:03.018Z,99566.94
2022-09-26T00:29:09.130Z,99558.63
2022-09-26T00:30:12.086Z,99562.81
2022-09-26T00:31:36.168Z,99561.09
2022-09-26T00:32:38.308Z,99554.72
2022-09-26T00:33:41.032Z,99553.91
2022-09-26T00:34:43.619Z,99561.09
2022-09-26T00:35:53.266Z,99567.47
2022-09-26T00:36:55.587Z,99562.75
2022-09-26T00:37:57.725Z,99563.56
2022-09-26T00:39:00.627Z,99558.84
2022-09-26T00:40:03.703Z,99560.78
2022-09-26T00:41:06.728Z,99561.59
2022-09-26T00:42:15.614Z,99557.72
2022-09-26T00:43:42.335Z,99556.59
2022-09-26T00:44:48.638Z,99552.16
2022-09-26T00:45:50.961Z,99551.06
2022-09-26T00:46:53.142Z,99547.47
2022-09-26T00:48:02.350Z,99551.88
2022-09-26T00:49:28.403Z,99549.94
2022-09-26T00:50:37.729Z,99559.88
2022-09-26T00:51:48.525Z,99547.97
2022-09-26T00:53:06.809Z,99548.78
2022-09-26T00:54:15.200Z,99546.84
2022-09-26T00:55:21.429Z,99551.28
2022-09-26T00:56:30.349Z,99551.28
2022-09-26T00:57:38.880Z,99547.38
2022-09-26T00:58:45.802Z,99543.78
2022-09-26T00:59:54.568Z,99549.31
2022-09-26T01:00:57.679Z,99546.25
2022-09-26T01:02:00.143Z,99541.81
2022-09-26T01:03:03.522Z,99548.22
2022-09-26T01:04:06.922Z,99551.78
2022-09-26T01:05:12.394Z,99544.31
2022-09-26T01:06:15.968Z,99547.09
2022-09-26T01:07:21.997Z,99540.69
2022-09-26T01:08:34.127Z,99537.94
2022-09-26T01:09:38.392Z,99545.94
2022-09-26T01:10:40.546Z,99543.47
2022-09-26T01:11:45.405Z,99545.94
2022-09-26T01:12:56.905Z,99539.59
2022-09-26T01:13:59.126Z,99544.00
2022-09-26T01:15:01.811Z,99543.16
2022-09-26T01:16:03.977Z,99549.88
2022-09-26T01:17:06.419Z,99555.91
2022-09-26T01:18:08.860Z,99552.34
2022-09-26T01:19:43.822Z,99547.09
2022-09-26T01:21:00.979Z,99548.72
2022-09-26T01:22:21.844Z,99545.13
2022-09-26T01:23:42.648Z,99549.56
2022-09-26T01:25:15.965Z,99545.94
2022-09-26T01:27:15.458Z,99540.69
2022-09-26T01:28:36.117Z,99546.25
2022-09-26T01:30:00.925Z,99547.38
2022-09-26T01:31:14.028Z,99538.22
2022-09-26T01:32:51.607Z,99546.84
2022-09-26T01:34:10.532Z,99539.66
2022-09-26T01:36:05.185Z,99533.28
2022-09-26T01:37:28.151Z,99535.22
2022-09-26T01:38:39.784Z,99538.31
2022-09-26T01:39:56.329Z,99536.38
2022-09-26T01:41:32.321Z,99534.19
2022-09-26T01:42:55.203Z,99532.25
2022-09-26T01:44:25.364Z,99529.25
2022-09-26T01:45:39.487Z,99521.22
2022-09-26T01:46:51.093Z,99530.66
2022-09-26T01:48:07.550Z,99537.88
2022-09-26T01:49:22.959Z,99540.09
2022-09-26T01:50:49.690Z,99537.63
2022-09-26T01:52:24.426Z,99535.16
2022-09-26T01:53:44.086Z,99535.16
2022-09-26T01:54:55.565Z,99533.50
2022-09-26T01:56:12.642Z,99535.44
2022-09-26T01:57:23.534Z,99536.56
2022-09-26T01:58:32.610Z,99528.53
2022-09-26T01:59:51.326Z,99538.81
2022-09-26T02:00:58.519Z,99534.38
2022-09-26T02:02:10.906Z,99535.22
2022-09-26T02:03:17.323Z,99532.72
2022-09-26T02:04:28.065Z,99534.69
2022-09-26T02:05:35.793Z,99529.44
2022-09-26T02:06:48.265Z,99535.00
2022-09-26T02:08:00.896Z,99526.97
2022-09-26T02:09:14.263Z,99526.13
2022-09-26T02:10:23.481Z,99521.72
2022-09-26T02:11:26.681Z,99524.78
2022-09-26T02:12:34.202Z,99519.53
2022-09-26T02:13:46.500Z,99525.09
2022-09-26T02:14:51.329Z,99516.25
2022-09-26T02:15:58.766Z,99520.97
2022-09-26T02:17:11.298Z,99522.06
2022-09-26T02:18:33.879Z,99516.00
2022-09-26T02:19:56.882Z,99518.78
2022-09-26T02:21:09.898Z,99519.09
2022-09-26T02:22:12.183Z,99513.00
2022-09-26T02:23:14.792Z,99515.25
2022-09-26T02:24:17.170Z,99516.38
2022-09-26T02:25:19.521Z,99513.88
2022-09-26T02:26:23.309Z,99519.72
2022-09-26T02:27:27.810Z,99514.50
2022-09-26T02:28:31.333Z,99517.56
2022-09-26T02:29:34.258Z,99513.13
2022-09-26T02:30:37.198Z,99515.09
2022-09-26T02:31:46.676Z,99510.97
2022-09-26T02:32:49.860Z,99512.09
2022-09-26T02:33:53.495Z,99516.81
2022-09-26T02:34:56.872Z,99511.53
2022-09-26T02:36:00.207Z,99511.84
2022-09-26T02:37:07.910Z,99507.72
2022-09-26T02:38:11.163Z,99510.47
2022-09-26T02:39:22.670Z,99511.91
2022-09-26T02:40:56.559Z,99513.84
2022-09-26T02:42:18.144Z,99512.19
2022-09-26T02:43:40.618Z,99513.63
2022-09-26T02:44:54.618Z,99507.25
2022-09-26T02:46:27.624Z,99506.41
2022-09-26T02:47:51.768Z,99505.91
2022-09-26T02:49:09.738Z,99508.13
2022-09-26T02:50:20.971Z,99504.81
2022-09-26T02:51:49.938Z,99505.63
2022-09-26T02:53:04.863Z,99502.31
2022-09-26T02:54:28.897Z,99507.34
2022-09-26T02:55:46.793Z,99502.91
2022-09-26T02:57:31.913Z,99504.03
2022-09-26T02:58:42.553Z,99502.38
2022-09-26T03:00:08.146Z,99502.69
2022-09-26T03:01:25.631Z,99501.03
2022-09-26T03:03:06.028Z,99505.75
2022-09-26T03:04:22.416Z,99501.31
2022-09-26T03:05:27.650Z,99501.63
2022-09-26T03:06:37.471Z,99500.81
2022-09-26T03:07:52.430Z,99510.22
2022-09-26T03:08:58.268Z,99501.06
2022-09-26T03:10:03.874Z,99509.69
2022-09-26T03:11:10.941Z,99504.16
2022-09-26T03:12:13.940Z,99506.09
2022-09-26T03:13:18.597Z,99501.69
2022-09-26T03:14:23.882Z,99502.78
2022-09-26T03:15:28.053Z,99502.78
2022-09-26T03:16:36.208Z,99506.69
2022-09-26T03:17:44.687Z,99498.41
2022-09-26T03:18:59.323Z,99499.22
2022-09-26T03:20:12.177Z,99503.09
2022-09-26T03:21:15.215Z,99502.28
2022-09-26T03:22:17.440Z,99495.09
2022-09-26T03:23:29.621Z,99494.25
2022-09-26T03:24:37.371Z,99492.59
2022-09-26T03:25:40.999Z,99502.84
2022-09-26T03:26:47.826Z,99496.78
2022-09-26T03:27:50.944Z,99493.19
2022-09-26T03:28:56.353Z,99491.25
2022-09-26T03:30:00.777Z,99492.38
2022-09-26T03:31:03.852Z,99491.56
2022-09-26T03:32:14.830Z,99494.59
2022-09-26T03:33:17.197Z,99493.78
2022-09-26T03:34:19.475Z,99495.72
2022-09-26T03:35:23.324Z,99497.13
2022-09-26T03:36:26.048Z,99496.00
2022-09-26T03:37:30.792Z,99489.94
2022-09-26T03:38:33.296Z,99490.75
2022-09-26T03:39:42.311Z,99496.59
2022-09-26T03:40:50.343Z,99493.00
2022-09-26T03:42:11.057Z,99490.50
2022-09-26T03:43:14.436Z,99496.06
2022-09-26T03:44:17.674Z,99496.34
2022-09-26T03:45:39.016Z,99492.75
2022-09-26T03:46:54.886Z,99496.34
2022-09-26T03:47:57.672Z,99497.47
2022-09-26T03:49:00.561Z,99495.00
2022-09-26T03:50:03.059Z,99501.66
2022-09-26T03:51:07.806Z,99502.47
2022-09-26T03:52:12.408Z,99499.16
2022-09-26T03:53:15.188Z,99495.28
2022-09-26T03:54:18.013Z,99503.06
2022-09-26T03:55:20.659Z,99493.63
2022-09-26T03:56:23.517Z,99497.53
2022-09-26T03:57:25.671Z,99503.06
2022-09-26T03:58:34.952Z,99496.69
2022-09-26T03:59:37.205Z,99497.53
2022-09-26T04:00:40.804Z,99498.66
2022-09-26T04:01:43.467Z,99495.88
2022-09-26T04:02:45.663Z,99493.94
2022-09-26T04:04:02.490Z,99492.28
2022-09-26T04:05:05.079Z,99492.56
2022-09-26T04:06:09.691Z,99489.00
2022-09-26T04:07:16.457Z,99480.38
2022-09-26T04:08:18.625Z,99482.34
2022-09-26T04:09:21.181Z,99481.50
2022-09-26T04:10:26.306Z,99484.25
2022-09-26T04:11:29.235Z,99475.16
2022-09-26T04:12:33.049Z,99477.06
2022-09-26T04:13:53.231Z,99480.69
2022-09-26T04:14:58.233Z,99484.56
2022-09-26T04:16:01.634Z,99480.97
2022-09-26T04:17:03.950Z,99473.50
2022-09-26T04:18:10.082Z,99475.72
2022-09-26T04:19:12.826Z,99483.75
2022-09-26T04:20:15.044Z,99484.88
2022-09-26T04:21:18.943Z,99473.78
2022-09-26T04:22:21.145Z,99480.44
2022-09-26T04:23:23.403Z,99476.56
2022-09-26T04:24:26.138Z,99478.47
2022-09-26T04:25:29.711Z,99474.91
2022-09-26T04:26:32.361Z,99468.25
2022-09-26T04:27:34.511Z,99467.41
2022-09-26T04:28:38.401Z,99471.03
2022-09-26T04:29:40.647Z,99469.91
2022-09-26T04:30:59.429Z,99471.03
2022-09-26T04:32:02.626Z,99471.03
2022-09-26T04:33:14.306Z,99469.06
2022-09-26T04:34:27.223Z,99469.06
2022-09-26T04:35:30.745Z,99472.69
2022-09-26T04:36:33.147Z,99479.31
2022-09-26T04:37:37.202Z,99469.91
2022-09-26T04:38:40.381Z,99479.31
2022-09-26T04:39:45.834Z,99477.38
2022-09-26T04:40:48.567Z,99472.94
2022-09-26T04:41:52.539Z,99476.56
2022-09-26T04:42:54.781Z,99474.91
2022-09-26T04:43:59.232Z,99481.53
2022-09-26T04:45:01.416Z,99479.63
2022-09-26T04:46:08.653Z,99478.78
2022-09-26T04:47:12.023Z,99481.53
2022-09-26T04:48:34.605Z,99477.97
2022-09-26T04:49:45.390Z,99476.00
2022-09-26T04:50:47.577Z,99471.59
2022-09-26T04:51:49.806Z,99472.72
2022-09-26T04:52:52.030Z,99471.88
2022-09-26T04:53:54.300Z,99473.84
2022-09-26T04:55:11.227Z,99469.41
2022-09-26T04:56:15.476Z,99467.75
2022-09-26T04:57:19.935Z,99474.41
2022-09-26T04:58:22.409Z,99474.41
2022-09-26T04:59:24.698Z,99466.09
2022-09-26T05:00:35.209Z,99471.13
2022-09-26T05:01:55.248Z,99461.16
2022-09-26T05:03:03.370Z,99465.03
2022-09-26T05:04:05.632Z,99461.44
2022-09-26T05:05:09.722Z,99461.44
2022-09-26T05:06:13.298Z,99462.56
2022-09-26T05:07:16.416Z,99465.34
2022-09-26T05:08:18.635Z,99462.56
2022-09-26T05:09:20.813Z,99462.56
2022-09-26T05:10:43.430Z,99462.06
2022-09-26T05:11:45.611Z,99465.63
2022-09-26T05:12:49.530Z,99468.41
2022-09-26T05:13:54.147Z,99464.81
2022-09-26T05:14:57.598Z,99462.31
2022-09-26T05:16:01.838Z,99462.88
2022-09-26T05:17:04.699Z,99463.97
2022-09-26T05:18:08.874Z,99451.25
2022-09-26T05:19:15.078Z,99462.06
2022-09-26T05:20:48.378Z,99455.66
2022-09-26T05:21:50.520Z,99459.56
2022-09-26T05:22:53.121Z,99469.00
2022-09-26T05:24:13.801Z,99468.69
2022-09-26T05:25:34.520Z,99466.22
2022-09-26T05:26:48.605Z,99459.84
2022-09-26T05:27:52.216Z,99469.00
2022-09-26T05:29:07.625Z,99467.34
2022-09-26T05:30:27.225Z,99469.25
2022-09-26T05:31:30.266Z,99467.34
2022-09-26T05:32:32.875Z,99472.03
2022-09-26T05:33:36.580Z,99470.09
2022-09-26T05:34:38.858Z,99470.09
2022-09-26T05:35:42.766Z,99462.63
2022-09-26T05:36:44.944Z,99463.72
2022-09-26T05:37:47.112Z,99463.72
2022-09-26T05:38:49.332Z,99459.84
2022-09-26T05:40:10.435Z,99456.25
2022-09-26T05:41:23.010Z,99463.72
2022-09-26T05:42:25.651Z,99464.56
2022-09-26T05:43:30.555Z,99467.34
2022-09-26T05:44:33.637Z,99466.50
2022-09-26T05:45:38.162Z,99465.69
2022-09-26T05:46:40.771Z,99464.56
2022-09-26T05:47:48.750Z,99466.22
2022-09-26T05:48:51.867Z,99470.09
2022-09-26T05:49:57.737Z,99466.50
2022-09-26T05:51:13.322Z,99463.47
2022-09-26T05:52:18.158Z,99473.69
2022-09-26T05:53:20.429Z,99470.91
2022-09-26T05:54:24.261Z,99462.63
2022-09-26T05:55:29.856Z,99459.03
2022-09-26T05:56:37.469Z,99472.88
2022-09-26T05:58:11.197Z,99465.38
2022-09-26T05:59:45.481Z,99471.75
2022-09-26T06:01:10.608Z,99465.38
2022-09-26T06:02:15.230Z,99463.47
2022-09-26T06:03:46.096Z,99461.81
2022-09-26T06:04:56.579Z,99473.69
2022-09-26T06:06:19.955Z,99472.03
2022-09-26T06:07:22.693Z,99472.03
2022-09-26T06:08:24.853Z,99468.16
2022-09-26T06:09:44.774Z,99471.22
2022-09-26T06:10:51.977Z,99473.16
2022-09-26T06:11:54.271Z,99469.56
2022-09-26T06:13:00.870Z,99473.97
2022-09-26T06:14:03.399Z,99473.16
2022-09-26T06:15:09.566Z,99469.56
2022-09-26T06:16:18.581Z,99470.66
2022-09-26T06:17:20.918Z,99464.31
2022-09-26T06:18:23.222Z,99476.19
2022-09-26T06:19:25.499Z,99469.84
2022-09-26T06:20:28.112Z,99468.75
2022-09-26T06:21:30.932Z,99467.91
2022-09-26T06:22:42.067Z,99461.56
2022-09-26T06:23:45.181Z,99466.28
2022-09-26T06:24:48.123Z,99463.50
2022-09-26T06:25:51.485Z,99466.28
2022-09-26T06:26:53.861Z,99465.44
2022-09-26T06:28:00.009Z,99462.66
2022-09-26T06:29:02.561Z,99463.50
2022-09-26T06:30:13.945Z,99459.91
2022-09-26T06:31:19.037Z,99462.66
2022-09-26T06:32:58.002Z,99461.56
2022-09-26T06:34:15.266Z,99464.63
2022-09-26T06:35:22.047Z,99459.91
2022-09-26T06:36:38.267Z,99462.97
2022-09-26T06:37:40.478Z,99462.97
2022-09-26T06:38:42.623Z,99463.78
2022-09-26T06:39:50.679Z,99464.06
2022-09-26T06:40:54.133Z,99453.00
2022-09-26T06:41:56.731Z,99453.84
2022-09-26T06:43:33.731Z,99460.19
2022-09-26T06:44:44.787Z,99453.00
2022-09-26T06:46:02.884Z,99456.59
2022-09-26T06:47:16.641Z,99461.00
2022-09-26T06:48:24.586Z,99461.00
2022-09-26T06:49:53.558Z,99451.88
2022-09-26T06:51:01.239Z,99457.41
2022-09-26T06:52:05.311Z,99459.38
2022-09-26T06:53:12.806Z,99459.09
2022-09-26T06:54:17.660Z,99454.66
2022-09-26T06:55:20.056Z,99457.41
2022-09-26T06:56:24.733Z,99453.53
2022-09-26T06:57:26.897Z,99452.69
2022-09-26T06:58:29.045Z,99447.16
2022-09-26T06:59:41.752Z,99453.53
2022-09-26T07:00:53.082Z,99446.06
2022-09-26T07:02:04.360Z,99447.72
2022-09-26T07:03:26.735Z,99437.47
2022-09-26T07:04:39.523Z,99435.53
2022-09-26T07:05:54.424Z,99437.19
2022-09-26T07:06:58.362Z,99444.34
2022-09-26T07:08:01.316Z,99435.25
2022-09-26T07:09:06.550Z,99437.72
2022-09-26T07:10:19.063Z,99435.25
2022-09-26T07:11:41.948Z,99438.56
2022-09-26T07:12:53.228Z,99442.94
2022-09-26T07:14:02.283Z,99437.16
2022-09-26T07:15:05.753Z,99440.44
2022-09-26T07:16:08.314Z,99441.28
2022-09-26T07:17:35.002Z,99440.97
2022-09-26T07:18:50.970Z,99432.38
2022-09-26T07:20:16.249Z,99436.50
2022-09-26T07:21:39.496Z,99437.31
2022-09-26T07:22:44.993Z,99424.31
2022-09-26T07:23:47.747Z,99432.31
2022-09-26T07:24:51.518Z,99428.72
2022-09-26T07:25:53.767Z,99425.69
2022-09-26T07:26:56.628Z,99424.53
2022-09-26T07:27:59.091Z,99427.03
2022-09-26T07:29:10.703Z,99427.53
2022-09-26T07:30:13.868Z,99431.97
2022-09-26T07:31:26.386Z,99430.00
2022-09-26T07:32:48.605Z,99432.22
2022-09-26T07:34:05.556Z,99427.19
2022-09-26T07:35:08.007Z,99428.84
2022-09-26T07:36:10.883Z,99432.16
2022-09-26T07:37:13.230Z,99429.09
2022-09-26T07:38:15.490Z,99427.69
2022-09-26T07:39:18.733Z,99428.19
2022-09-26T07:40:21.233Z,99422.66
2022-09-26T07:41:23.490Z,99428.72
2022-09-26T07:42:25.932Z,99428.13
2022-09-26T07:43:53.653Z,99422.31
2022-09-26T07:45:20.963Z,99429.22
2022-09-26T07:46:32.884Z,99425.31
2022-09-26T07:47:53.904Z,99431.09
2022-09-26T07:49:38.165Z,99429.06
2022-09-26T07:50:46.653Z,99422.13
2022-09-26T07:52:00.891Z,99431.19
2022-09-26T07:53:28.855Z,99431.13
2022-09-26T07:55:11.397Z,99432.66
2022-09-26T07:56:34.574Z,99425.38
2022-09-26T07:57:56.796Z,99431.03
2022-09-26T07:59:19.186Z,99421.47
2022-09-26T08:00:31.614Z,99422.13
2022-09-26T08:01:49.858Z,99417.28
2022-09-26T08:03:12.139Z,99422.84
2022-09-26T08:04:18.348Z,99416.66
2022-09-26T08:05:20.635Z,99416.47
2022-09-26T08:06:25.720Z,99416.59
2022-09-26T08:07:27.937Z,99425.88
2022-09-26T08:08:39.382Z,99423.78
2022-09-26T08:10:08.656Z,99411.34
2022-09-26T08:11:29.421Z,99420.59
2022-09-26T08:12:44.868Z,99419.59
2022-09-26T08:14:07.733Z,99420.22
2022-09-26T08:15:30.116Z,99424.44
2022-09-26T08:16:41.716Z,99419.31
2022-09-26T08:17:44.330Z,99425.78
2022-09-26T08:18:47.145Z,99422.25
2022-09-26T08:19:49.739Z,99426.28
2022-09-26T08:20:52.256Z,99418.06
2022-09-26T08:21:54.434Z,99410.94
2022-09-26T08:22:56.843Z,99426.56
2022-09-26T08:23:59.159Z,99418.31
2022-09-26T08:25:08.105Z,99418.06
2022-09-26T08:26:43.889Z,99414.41
2022-09-26T08:28:00.480Z,99415.50
2022-09-26T08:29:03.618Z,99415.25
2022-09-26T08:30:08.059Z,99420.56
2022-09-26T08:31:10.335Z,99418.34
2022-09-26T08:32:12.771Z,99416.13
2022-09-26T08:33:15.104Z,99415.22
2022-09-26T08:34:22.707Z,99414.63
2022-09-26T08:35:50.276Z,99414.69
2022-09-26T08:37:28.223Z,99408.88
2022-09-26T08:39:11.009Z,99413.88
2022-09-26T08:40:50.157Z,99404.06
2022-09-26T08:42:34.073Z,99408.16
2022-09-26T08:44:09.039Z,99405.22
2022-09-26T08:46:36.676Z,99405.56
2022-09-26T08:48:04.043Z,99405.34
2022-09-26T08:49:41.934Z,99403.00
2022-09-26T08:50:54.972Z,99400.16
2022-09-26T08:52:01.460Z,99396.81
2022-09-26T08:53:14.647Z,99401.84
2022-09-26T08:54:42.186Z,99393.72
2022-09-26T08:55:48.301Z,99403.97
2022-09-26T08:57:00.385Z,99396.47
2022-09-26T08:58:10.353Z,99395.38
2022-09-26T08:59:32.993Z,99389.53
2022-09-26T09:00:40.553Z,99407.22
2022-09-26T09:01:51.934Z,99400.03
2022-09-26T09:03:10.967Z,99392.03
2022-09-26T09:04:23.491Z,99406.06
2022-09-26T09:05:31.957Z,99389.97
2022-09-26T09:06:36.344Z,99387.91
2022-09-26T09:07:38.499Z,99389.09
2022-09-26T09:08:47.506Z,99387.84
2022-09-26T09:10:06.395Z,99381.78
2022-09-26T09:11:53.794Z,99391.03
2022-09-26T09:13:05.564Z,99390.56
2022-09-26T09:14:39.546Z,99386.94
2022-09-26T09:16:53.373Z,99378.66
2022-09-26T09:18:48.466Z,99373.16
2022-09-26T09:20:10.744Z,99375.84
2022-09-26T09:21:45.289Z,99375.31
2022-09-26T09:23:25.024Z,99375.53
2022-09-26T09:24:45.711Z,99369.69
2022-09-26T09:27:54.996Z,99376.44
2022-09-26T09:29:19.259Z,99369.34
2022-09-26T09:30:51.953Z,99367.13
2022-09-26T09:32:05.018Z,99368.84
2022-09-26T09:33:37.208Z,99364.66
2022-09-26T09:34:53.987Z,99370.72
2022-09-26T09:36:38.577Z,99367.19
2022-09-26T09:38:07.489Z,99368.09
2022-09-26T09:39:33.118Z,99368.22
2022-09-26T09:40:43.146Z,99359.41
2022-09-26T09:41:52.526Z,99357.88
2022-09-26T09:43:01.867Z,99363.13
2022-09-26T09:44:11.044Z,99354.72
2022-09-26T09:45:21.662Z,99353.91
2022-09-26T09:46:29.340Z,99355.53
2022-09-26T09:47:37.811Z,99351.53
2022-09-26T09:48:40.169Z,99352.81
2022-09-26T09:49:45.095Z,99355.28
2022-09-26T09:51:08.612Z,99354.53
2022-09-26T09:52:38.391Z,99355.81
2022-09-26T09:54:00.126Z,99350.66
2022-09-26T09:55:26.920Z,99350.75
2022-09-26T09:57:13.836Z,99349.19
2022-09-26T09:58:46.604Z,99351.75
2022-09-26T10:00:18.369Z,99346.59
2022-09-26T10:01:41.569Z,99347.38
2022-09-26T10:03:02.576Z,99350.19
2022-09-26T10:04:34.832Z,99347.38
2022-09-26T10:05:43.228Z,99349.41
2022-09-26T10:06:55.217Z,99353.38
2022-09-26T10:07:59.347Z,99347.75
2022-09-26T10:09:42.049Z,99343.69
2022-09-26T10:11:24.225Z,99337.25
2022-09-26T10:12:35.504Z,99333.97
2022-09-26T10:14:01.388Z,99333.16
2022-09-26T10:15:27.543Z,99329.78
2022-09-26T10:17:10.459Z,99323.72
2022-09-26T10:18:31.461Z,99319.19
2022-09-26T10:19:45.312Z,99320.34
2022-09-26T10:20:54.687Z,99318.75
2022-09-26T10:21:58.620Z,99316.28
2022-09-26T10:23:01.948Z,99319.44
2022-09-26T10:24:04.986Z,99318.66
2022-09-26T10:25:30.118Z,99318.66
2022-09-26T10:26:39.509Z,99317.00
2022-09-26T10:27:50.609Z,99313.84
2022-09-26T10:28:56.938Z,99320.28
2022-09-26T10:30:18.939Z,99315.84
2022-09-26T10:31:31.263Z,99309.06
2022-09-26T10:32:55.570Z,99312.19
2022-09-26T10:34:25.547Z,99314.19
2022-09-26T10:35:43.747Z,99315.38
2022-09-26T10:36:48.020Z,99309.31
2022-09-26T10:38:18.282Z,99313.66
2022-09-26T10:39:44.071Z,99310.75
2022-09-26T10:40:55.238Z,99309.00
2022-09-26T10:41:59.639Z,99310.91
2022-09-26T10:43:19.374Z,99322.00
2022-09-26T10:44:39.855Z,99311.03
2022-09-26T10:45:41.991Z,99312.13
2022-09-26T10:47:10.042Z,99312.03
2022-09-26T10:48:48.540Z,99307.94
2022-09-26T10:50:16.627Z,99304.69
2022-09-26T10:52:01.834Z,99303.75
2022-09-26T10:53:08.506Z,99308.56
2022-09-26T10:54:16.566Z,99298.88
2022-09-26T10:55:28.083Z,99296.44
2022-09-26T10:56:36.202Z,99298.41
2022-09-26T10:57:50.126Z,99296.44
2022-09-26T10:59:04.368Z,99293.97
2022-09-26T11:00:08.077Z,99290.34
2022-09-26T11:01:21.375Z,99291.16
2022-09-26T11:02:26.742Z,99278.66
2022-09-26T11:03:47.438Z,99289.91
2022-09-26T11:05:20.461Z,99279.84
2022-09-26T11:06:50.642Z,99279.84
2022-09-26T11:07:59.452Z,99282.66
2022-09-26T11:09:20.604Z,99278.19
2022-09-26T11:10:57.297Z,99279.03
2022-09-26T11:12:23.993Z,99272.47
2022-09-26T11:13:30.129Z,99265.59
2022-09-26T11:14:45.914Z,99277.19
2022-09-26T11:16:10.929Z,99272.72
2022-09-26T11:17:15.766Z,99274.63
2022-09-26T11:18:47.381Z,99275.00
2022-09-26T11:20:02.401Z,99274.06
2022-09-26T11:21:47.828Z,99275.97
2022-09-26T11:23:02.202Z,99266.63
2022-09-26T11:24:26.560Z,99267.22
2022-09-26T11:25:38.273Z,99261.16
2022-09-26T11:27:04.530Z,99262.19
2022-09-26T11:28:15.548Z,99265.72
2022-09-26T11:30:09.284Z,99260.34
2022-09-26T11:31:26.826Z,99257.44
2022-09-26T11:32:52.401Z,99252.53
2022-09-26T11:34:21.898Z,99254.44
2022-09-26T11:36:36.185Z,99251.03
2022-09-26T11:37:38.474Z,99250.59
2022-09-26T11:38:58.035Z,99248.16
2022-09-26T11:40:28.050Z,99254.44
2022-09-26T11:42:02.009Z,99247.13
2022-09-26T11:43:15.787Z,99254.56
2022-09-26T11:44:30.591Z,99245.72
2022-09-26T11:46:29.827Z,99248.41
2022-09-26T11:48:24.631Z,99230.53
2022-09-26T11:50:08.446Z,99244.81
2022-09-26T11:52:17.678Z,99238.28
2022-09-26T11:53:40.525Z,99235.69
2022-09-26T11:54:58.525Z,99246.00
2022-09-26T11:56:41.708Z,99237.78
2022-09-26T11:58:08.637Z,99240.03
2022-09-26T11:59:42.431Z,99234.66
2022-09-26T12:00:58.259Z,99238.97
2022-09-26T12:02:33.989Z,99233.59
2022-09-26T12:03:39.116Z,99231.81
2022-09-26T12:05:22.421Z,99230.53
2022-09-26T12:06:35.423Z,99222.72
2022-09-26T12:08:25.647Z,99222.25
2022-09-26T12:09:47.442Z,99227.63
2022-09-26T12:11:17.340Z,99222.72
2022-09-26T12:12:39.647Z,99217.81
2022-09-26T12:14:02.144Z,99220.47
2022-09-26T12:15:31.967Z,99216.28
2022-09-26T12:17:08.504Z,99218.13
2022-09-26T12:18:34.401Z,99211.59
2022-09-26T12:19:45.818Z,99209.03
2022-09-26T12:21:23.457Z,99200.84
2022-09-26T12:22:41.698Z,99201.16
2022-09-26T12:24:06.241Z,99197.91
2022-09-26T12:25:47.992Z,99202.22
2022-09-26T12:27:04.984Z,99200.59
2022-09-26T12:28:58.975Z,99202.09
2022-09-26T12:30:06.242Z,99195.19
2022-09-26T12:31:40.601Z,99198.00
2022-09-26T12:32:48.641Z,99198.00
2022-09-26T12:34:19.544Z,99198.00
2022-09-26T12:35:45.407Z,99186.00
2022-09-26T12:37:18.764Z,99182.03
2022-09-26T12:39:04.309Z,99186.81
2022-09-26T12:40:24.401Z,99178.91
2022-09-26T12:42:04.358Z,99178.91
2022-09-26T12:43:39.011Z,99184.16
2022-09-26T12:45:06.806Z,99185.75
2022-09-26T12:46:24.593Z,99171.31
2022-09-26T12:47:46.664Z,99174.91
2022-09-26T12:48:54.751Z,99167.72
2022-09-26T12:50:18.160Z,99179.22
2022-09-26T12:51:47.337Z,99175.13
2022-09-26T12:53:01.751Z,99169.09
2022-09-26T12:54:28.097Z,99169.09
2022-09-26T12:56:01.224Z,99176.19
2022-09-26T12:57:31.476Z,99165.34
2022-09-26T12:58:40.075Z,99166.84
2022-09-26T13:00:06.216Z,99168.00
2022-09-26T13:01:24.069Z,99164.72
2022-09-26T13:02:51.896Z,99167.53
2022-09-26T13:04:07.902Z,99154.69
2022-09-26T13:05:44.044Z,99161.47
2022-09-26T13:07:19.025Z,99147.00
2022-09-26T13:08:31.222Z,99150.97
2022-09-26T13:10:01.427Z,99152.16
2022-09-26T13:11:21.831Z,99155.28
2022-09-26T13:12:45.885Z,99150.03
2022-09-26T13:14:14.721Z,99157.13
2022-09-26T13:15:34.961Z,99145.50
2022-09-26T13:16:46.815Z,99149.44
2022-09-26T13:18:14.224Z,99148.16
2022-09-26T13:19:26.645Z,99148.50
2022-09-26T13:20:46.362Z,99151.28
2022-09-26T13:21:55.305Z,99140.78
2022-09-26T13:23:04.213Z,99144.72
2022-09-26T13:24:14.203Z,99142.28
2022-09-26T13:25:22.379Z,99148.22
2022-09-26T13:26:33.947Z,99141.34
2022-09-26T13:27:41.930Z,99134.13
2022-09-26T13:29:15.789Z,99132.81
2022-09-26T13:30:22.454Z,99135.50
2022-09-26T13:31:55.989Z,99137.34
2022-09-26T13:33:31.885Z,99130.44
2022-09-26T13:34:41.368Z,99129.16
2022-09-26T13:35:48.123Z,99126.25
2022-09-26T13:36:51.568Z,99126.56
2022-09-26T13:38:14.350Z,99128.13
2022-09-26T13:39:49.918Z,99125.63
2022-09-26T13:41:07.120Z,99120.72
2022-09-26T13:42:38.103Z,99122.22
2022-09-26T13:43:50.601Z,99116.63
2022-09-26T13:45:26.087Z,99118.13
2022-09-26T13:46:37.292Z,99124.06
2022-09-26T13:47:49.857Z,99122.41
2022-09-26T13:49:07.613Z,99109.59
2022-09-26T13:50:34.668Z,99108.31
2022-09-26T13:51:49.395Z,99104.72
2022-09-26T13:53:21.499Z,99108.66
2022-09-26T13:54:40.452Z,99097.84
2022-09-26T13:55:43.613Z,99098.97
2022-09-26T13:56:50.493Z,99092.59
2022-09-26T13:58:00.195Z,99098.19
2022-09-26T13:59:24.397Z,99092.94
2022-09-26T14:00:39.109Z,99096.88
2022-09-26T14:02:16.017Z,99100.47
2022-09-26T14:03:19.367Z,99094.91
2022-09-26T14:04:34.202Z,99096.88
2022-09-26T14:05:52.489Z,99104.13
2022-09-26T14:07:28.757Z,99098.84
2022-09-26T14:08:51.920Z,99087.66
2022-09-26T14:10:03.234Z,99084.88
2022-09-26T14:11:22.091Z,99086.88
2022-09-26T14:12:55.504Z,99083.25
2022-09-26T14:14:19.254Z,99082.09
2022-09-26T14:15:28.868Z,99091.66
2022-09-26T14:16:30.955Z,99077.69
2022-09-26T14:17:45.946Z,99081.28
2022-09-26T14:19:08.382Z,99069.28
2022-09-26T14:20:35.272Z,99075.69
2022-09-26T14:21:39.377Z,99067.31
2022-09-26T14:22:51.881Z,99068.09
2022-09-26T14:24:27.718Z,99076.84
2022-09-26T14:25:56.831Z,99068.09
2022-09-26T14:27:11.131Z,99065.31
2022-09-26T14:28:32.836Z,99066.16
2022-09-26T14:29:38.132Z,99062.53
2022-09-26T14:31:09.198Z,99063.34
2022-09-26T14:32:20.593Z,99060.91
2022-09-26T14:33:24.137Z,99058.91
2022-09-26T14:34:30.607Z,99061.72